Time;durP1;ratioP1;P1;durP2;ratioP2;P2;SDS_P1;SDS_P2;PMS_P1;PMS_P2;Temp;Humidity;BMP_temperature;BMP_pressure;BME280_temperature;BME280_humidity;BME280_pressure;Samples;Min_cycle;Max_cycle;Signal;HPM_P1;HPM_P2
2023/04/07 04:01:08;;;;;;;0.50;0.10;;;8.70;99.90;;;;;;5691908;23;20496;-68
2023/04/07 04:03:36;;;;;;;0.50;0.10;;;8.70;99.90;;;;;;4897176;29;20445;-69
2023/04/07 04:06:04;;;;;;;0.50;0.10;;;8.70;99.90;;;;;;4898567;29;20449;-69
2023/04/07 04:08:32;;;;;;;0.50;0.10;;;8.60;99.90;;;;;;4898136;29;20457;-69
2023/04/07 04:11:00;;;;;;;0.50;0.10;;;8.60;99.90;;;;;;4897788;29;20465;-68
2023/04/07 04:13:28;;;;;;;0.50;0.10;;;8.60;99.90;;;;;;4881027;29;20440;-69
2023/04/07 04:15:55;;;;;;;0.50;0.10;;;8.60;99.90;;;;;;4880017;29;21026;-70
2023/04/07 04:18:25;;;;;;;0.60;0.30;;;8.60;99.90;;;;;;4879548;29;20446;-70
2023/04/07 04:20:52;;;;;;;0.50;0.10;;;8.60;99.90;;;;;;4887307;29;20494;-69
2023/04/07 04:23:20;;;;;;;0.50;0.10;;;8.60;99.90;;;;;;4895207;29;20477;-69
2023/04/07 04:25:48;;;;;;;0.50;0.10;;;8.60;99.90;;;;;;4898199;29;20544;-70
2023/04/07 04:28:16;;;;;;;0.50;0.10;;;8.60;99.90;;;;;;4898263;29;20456;-68
2023/04/07 04:30:44;;;;;;;0.53;0.40;;;8.60;99.90;;;;;;4897575;29;20461;-70
2023/04/07 04:33:12;;;;;;;0.50;0.10;;;8.60;99.90;;;;;;4895412;29;20454;-70
2023/04/07 04:35:41;;;;;;;0.50;0.10;;;8.60;99.90;;;;;;4880070;29;20454;-69
2023/04/07 04:38:09;;;;;;;1.07;0.97;;;8.60;99.90;;;;;;4881612;29;20868;-68
2023/04/07 04:40:37;;;;;;;0.50;0.10;;;8.60;99.90;;;;;;4881827;29;20846;-69
2023/04/07 04:43:06;;;;;;;0.50;0.10;;;8.60;99.90;;;;;;4881257;29;20516;-69
2023/04/07 04:45:33;;;;;;;0.50;0.10;;;8.60;99.90;;;;;;4880612;29;20833;-68
2023/04/07 04:48:01;;;;;;;0.50;0.10;;;8.60;99.90;;;;;;4879067;29;20953;-69
2023/04/07 04:50:29;;;;;;;0.50;0.10;;;8.60;99.90;;;;;;4880867;29;20458;-70
2023/04/07 04:52:59;;;;;;;0.50;0.10;;;8.60;99.90;;;;;;4892711;29;20452;-68
2023/04/07 04:55:26;;;;;;;0.50;0.10;;;8.60;99.90;;;;;;4899971;29;20445;-68
2023/04/07 04:57:54;;;;;;;0.50;0.10;;;8.60;99.90;;;;;;4888755;29;20459;-69
2023/04/07 05:00:22;;;;;;;0.50;0.10;;;8.60;99.90;;;;;;4880126;29;20459;-69
2023/04/07 05:02:50;;;;;;;0.60;0.27;;;8.60;99.90;;;;;;4884028;29;20487;-68
2023/04/07 05:05:18;;;;;;;0.50;0.10;;;8.60;99.90;;;;;;4880362;29;21037;-67
2023/04/07 05:07:46;;;;;;;0.50;0.10;;;8.60;99.90;;;;;;4872834;29;20508;-68
2023/04/07 05:10:15;;;;;;;0.50;0.10;;;8.60;99.90;;;;;;4862159;29;20863;-68
2023/04/07 05:12:43;;;;;;;0.50;0.10;;;8.60;99.90;;;;;;4860250;29;20494;-68
2023/04/07 05:15:11;;;;;;;0.50;0.10;;;8.60;99.90;;;;;;4866977;29;20438;-68
2023/04/07 05:17:39;;;;;;;0.50;0.10;;;8.60;99.90;;;;;;4882877;29;20454;-68
2023/04/07 05:20:10;;;;;;;0.60;0.10;;;8.70;99.90;;;;;;4888757;29;21015;-69
2023/04/07 05:22:37;;;;;;;0.50;0.10;;;8.60;99.90;;;;;;4881123;29;20497;-68
2023/04/07 05:25:06;;;;;;;0.50;0.10;;;8.70;99.90;;;;;;4877829;29;20446;-68
2023/04/07 05:27:35;;;;;;;0.70;0.57;;;8.70;99.90;;;;;;4877918;29;20462;-68
2023/04/07 05:30:06;;;;;;;1.90;1.80;;;8.70;99.90;;;;;;4878378;29;20945;-70
2023/04/07 05:32:34;;;;;;;0.50;0.13;;;8.70;99.90;;;;;;4878127;29;20470;-68
2023/04/07 05:35:02;;;;;;;0.50;0.10;;;8.70;99.90;;;;;;4880246;29;20454;-71
2023/04/07 05:37:29;;;;;;;0.50;0.10;;;8.70;99.90;;;;;;4883426;29;20474;-68
2023/04/07 05:39:57;;;;;;;0.50;0.10;;;8.70;99.90;;;;;;4879873;29;20477;-68
2023/04/07 05:42:25;;;;;;;0.50;0.10;;;8.70;99.90;;;;;;4883554;29;20498;-68
2023/04/07 05:44:55;;;;;;;0.50;0.10;;;8.70;99.90;;;;;;4884786;29;20442;-69
2023/04/07 05:47:23;;;;;;;0.50;0.10;;;8.70;99.90;;;;;;4882963;29;20447;-70
2023/04/07 05:49:51;;;;;;;0.50;0.10;;;8.70;99.90;;;;;;4881034;29;20460;-69
2023/04/07 05:52:19;;;;;;;0.50;0.10;;;8.70;99.90;;;;;;4879049;29;20510;-68
2023/04/07 05:54:47;;;;;;;0.50;0.10;;;8.70;99.90;;;;;;4884530;29;20457;-68
2023/04/07 05:57:15;;;;;;;0.50;0.10;;;8.70;99.90;;;;;;4883873;29;20447;-69
2023/04/07 05:59:43;;;;;;;0.50;0.10;;;8.80;99.90;;;;;;4882165;29;20541;-70
2023/04/07 06:02:12;;;;;;;2.97;2.57;;;8.80;99.90;;;;;;4880503;29;20489;-68
2023/04/07 06:04:40;;;;;;;0.50;0.10;;;8.80;99.90;;;;;;4880681;29;20451;-68
2023/04/07 06:07:08;;;;;;;0.50;0.10;;;8.70;99.90;;;;;;4880937;29;20510;-69
2023/04/07 06:09:36;;;;;;;0.50;0.10;;;8.70;99.90;;;;;;4874129;29;20461;-68
2023/04/07 06:12:05;;;;;;;0.50;0.10;;;8.70;99.90;;;;;;4881140;29;20462;-69
2023/04/07 06:14:33;;;;;;;0.50;0.10;;;8.70;99.90;;;;;;4879004;29;20459;-70
2023/04/07 06:17:01;;;;;;;0.50;0.10;;;8.70;99.90;;;;;;4881312;29;20447;-69
2023/04/07 06:19:30;;;;;;;0.50;0.10;;;8.70;99.90;;;;;;4884553;29;20487;-68
2023/04/07 06:21:58;;;;;;;0.60;0.10;;;8.80;99.90;;;;;;4883877;29;20906;-68
2023/04/07 06:24:26;;;;;;;0.50;0.10;;;8.80;99.90;;;;;;4883003;29;20948;-67
2023/04/07 06:26:55;;;;;;;0.50;0.10;;;8.80;99.90;;;;;;4886786;29;20450;-69
2023/04/07 06:29:22;;;;;;;0.50;0.10;;;8.80;99.90;;;;;;4888135;29;20442;-68
2023/04/07 06:31:50;;;;;;;0.50;0.10;;;8.80;99.90;;;;;;4875676;29;20476;-68
2023/04/07 06:34:18;;;;;;;0.50;0.10;;;8.80;99.90;;;;;;4881556;29;20459;-68
2023/04/07 06:36:47;;;;;;;0.50;0.10;;;8.80;99.90;;;;;;4887909;29;20450;-68
2023/04/07 06:39:15;;;;;;;0.50;0.10;;;8.80;99.90;;;;;;4885484;29;20454;-69
2023/04/07 06:41:43;;;;;;;0.50;0.10;;;8.80;99.90;;;;;;4882422;29;20486;-68
2023/04/07 06:44:11;;;;;;;0.50;0.10;;;8.80;99.90;;;;;;4883497;29;20459;-70
2023/04/07 06:46:40;;;;;;;0.57;0.30;;;8.80;99.90;;;;;;4884567;29;20506;-69
2023/04/07 06:49:08;;;;;;;0.60;0.20;;;8.80;99.90;;;;;;4895077;29;20956;-69
2023/04/07 06:51:36;;;;;;;0.50;0.10;;;8.90;99.90;;;;;;4882099;29;20510;-69
2023/04/07 06:54:11;;;;;;;0.50;0.10;;;8.90;99.90;;;;;;4882508;29;20844;-68
2023/04/07 06:56:39;;;;;;;0.50;0.20;;;8.80;99.90;;;;;;4883152;29;20550;-70
2023/04/07 06:59:08;;;;;;;0.50;0.10;;;8.80;99.90;;;;;;4883963;29;20890;-68
2023/04/07 07:01:37;;;;;;;0.50;0.10;;;8.80;99.90;;;;;;4883907;29;20490;-69
2023/04/07 07:04:05;;;;;;;0.50;0.10;;;8.80;99.90;;;;;;4885115;29;20502;-68
2023/04/07 07:06:33;;;;;;;0.50;0.10;;;8.80;99.90;;;;;;4885579;29;20551;-69
2023/04/07 07:09:02;;;;;;;0.50;0.10;;;8.80;99.90;;;;;;4880297;29;20473;-69
2023/04/07 07:11:31;;;;;;;0.50;0.10;;;8.80;1.00;;;;;;4888852;29;21011;-70
2023/04/07 07:13:59;;;;;;;0.50;0.10;;;8.80;1.00;;;;;;4880881;29;20466;-69
2023/04/07 07:16:27;;;;;;;0.50;0.10;;;8.80;1.00;;;;;;4879020;29;20969;-69
2023/04/07 07:18:55;;;;;;;0.50;0.10;;;8.90;1.00;;;;;;4879061;29;20457;-70
2023/04/07 07:21:23;;;;;;;0.50;0.10;;;8.90;1.00;;;;;;4879922;29;20473;-69
2023/04/07 07:23:51;;;;;;;0.50;0.10;;;8.90;1.00;;;;;;4868653;29;20483;-67
2023/04/07 07:26:18;;;;;;;0.50;0.10;;;8.90;1.00;;;;;;4868977;29;20521;-69
2023/04/07 07:28:47;;;;;;;0.50;0.10;;;8.90;1.00;;;;;;4888315;29;20503;-70
2023/04/07 07:31:16;;;;;;;0.50;0.10;;;9.00;1.00;;;;;;4883071;29;20473;-68
2023/04/07 07:33:44;;;;;;;0.50;0.10;;;9.00;1.00;;;;;;4879466;29;20442;-69
2023/04/07 07:36:13;;;;;;;0.50;0.10;;;9.00;1.00;;;;;;4884551;29;20461;-68
2023/04/07 07:38:41;;;;;;;0.50;0.10;;;9.10;1.00;;;;;;4879203;29;20455;-68
2023/04/07 07:41:09;;;;;;;0.77;0.77;;;9.10;1.00;;;;;;4879689;29;20477;-68
2023/04/07 07:43:37;;;;;;;0.50;0.10;;;9.10;1.00;;;;;;4879770;29;20486;-69
2023/04/07 07:46:06;;;;;;;0.50;0.10;;;9.10;1.00;;;;;;4885885;29;20473;-69
2023/04/07 07:48:34;;;;;;;0.50;0.10;;;9.20;1.00;;;;;;4894444;29;20523;-69
2023/04/07 07:51:02;;;;;;;0.87;0.53;;;9.20;1.00;;;;;;4886798;29;20499;-69
2023/04/07 07:53:30;;;;;;;0.50;0.10;;;9.20;1.00;;;;;;4887053;29;20444;-68
2023/04/07 07:55:57;;;;;;;0.50;0.10;;;9.20;1.00;;;;;;4879969;29;20459;-68
2023/04/07 07:58:25;;;;;;;0.50;0.20;;;9.20;1.00;;;;;;4878283;29;20454;-71
2023/04/07 08:00:53;;;;;;;0.50;0.10;;;9.30;1.00;;;;;;4861608;29;20507;-68
2023/04/07 08:03:23;;;;;;;0.50;0.10;;;9.30;1.00;;;;;;4861569;29;20544;-69
2023/04/07 08:05:51;;;;;;;0.50;0.10;;;9.30;1.00;;;;;;4861522;29;20480;-69
2023/04/07 08:08:19;;;;;;;1.00;0.60;;;9.40;1.00;;;;;;4861165;29;20995;-71
2023/04/07 08:10:47;;;;;;;0.50;0.10;;;9.40;1.00;;;;;;4879426;29;20459;-70
2023/04/07 08:13:15;;;;;;;0.50;0.10;;;9.50;1.00;;;;;;4872804;29;20471;-69
2023/04/07 08:15:43;;;;;;;0.50;0.10;;;9.50;1.00;;;;;;4874456;29;20839;-68
2023/04/07 08:18:11;;;;;;;0.50;0.10;;;9.60;1.00;;;;;;4880464;29;20953;-69
2023/04/07 08:20:40;;;;;;;0.50;0.10;;;9.60;99.90;;;;;;4898598;29;20992;-70
2023/04/07 08:23:08;;;;;;;0.90;0.73;;;9.60;99.90;;;;;;4871155;29;21020;-68
2023/04/07 08:25:36;;;;;;;0.50;0.20;;;9.70;99.90;;;;;;4880746;29;20454;-70
2023/04/07 08:28:04;;;;;;;0.50;0.10;;;9.70;99.90;;;;;;4879551;29;20460;-69
2023/04/07 08:30:32;;;;;;;0.50;0.10;;;9.80;99.90;;;;;;4882394;29;20451;-70
2023/04/07 08:33:00;;;;;;;0.70;0.40;;;9.80;99.90;;;;;;4885821;29;20515;-67
2023/04/07 08:35:28;;;;;;;0.50;0.10;;;9.80;99.90;;;;;;4882269;29;20453;-70
2023/04/07 08:37:58;;;;;;;0.50;0.10;;;9.70;99.90;;;;;;4873575;29;20464;-69
2023/04/07 08:40:25;;;;;;;0.50;0.10;;;9.70;99.90;;;;;;4887459;29;20458;-69
2023/04/07 08:42:53;;;;;;;0.50;0.10;;;9.70;99.90;;;;;;4886744;29;20483;-69
2023/04/07 08:45:22;;;;;;;16.40;4.23;;;9.70;99.90;;;;;;4885718;29;20466;-68
2023/04/07 08:47:53;;;;;;;22.57;4.57;;;9.70;99.90;;;;;;4883025;29;20451;-69
2023/04/07 08:50:22;;;;;;;0.70;0.20;;;9.80;99.90;;;;;;4886211;29;20509;-71
2023/04/07 08:52:53;;;;;;;1.30;1.23;;;9.80;99.90;;;;;;4890518;29;20478;-69
2023/04/07 08:55:22;;;;;;;0.50;0.10;;;9.80;99.90;;;;;;4884364;29;20499;-72
2023/04/07 08:57:52;;;;;;;0.50;0.10;;;9.80;99.90;;;;;;4880690;29;20938;-68
2023/04/07 09:00:20;;;;;;;0.50;0.10;;;9.90;99.90;;;;;;4878602;29;20452;-70
2023/04/07 09:02:50;;;;;;;0.50;0.10;;;9.90;99.90;;;;;;4879198;29;20485;-70
2023/04/07 09:05:20;;;;;;;0.60;0.30;;;9.90;99.90;;;;;;4878440;29;20458;-69
2023/04/07 09:07:48;;;;;;;0.50;0.10;;;10.00;99.90;;;;;;4874710;29;20493;-70
2023/04/07 09:10:16;;;;;;;0.50;0.10;;;10.00;99.90;;;;;;4882738;29;20532;-69
2023/04/07 09:12:45;;;;;;;0.50;0.10;;;10.10;99.90;;;;;;4882471;29;20943;-69
2023/04/07 09:15:13;;;;;;;1.13;1.03;;;10.10;99.90;;;;;;4882263;29;20447;-68
2023/04/07 09:17:41;;;;;;;0.77;0.77;;;10.20;99.90;;;;;;4863697;29;20466;-70
2023/04/07 09:20:10;;;;;;;0.50;0.10;;;10.30;99.90;;;;;;4864589;29;20459;-70
2023/04/07 09:22:41;;;;;;;0.60;0.10;;;10.30;99.90;;;;;;4865141;29;20532;-71
2023/04/07 09:25:14;;;;;;;0.50;0.10;;;10.40;99.90;;;;;;4876296;29;20967;-69
2023/04/07 09:27:54;;;;;;;0.60;0.10;;;10.40;99.90;;;;;;4867250;29;20801;-70
2023/04/07 09:30:23;;;;;;;0.50;0.10;;;10.40;99.90;;;;;;4865489;29;20458;-70
2023/04/07 09:32:51;;;;;;;0.50;0.10;;;10.50;99.90;;;;;;4877699;29;20470;-68
2023/04/07 09:35:21;;;;;;;0.50;0.10;;;10.50;99.90;;;;;;4891353;29;20954;-68
2023/04/07 09:38:03;;;;;;;0.50;0.10;;;10.50;99.90;;;;;;4882340;29;20454;-69
2023/04/07 09:40:31;;;;;;;0.50;0.10;;;10.50;99.90;;;;;;4882270;29;20456;-69
2023/04/07 09:43:00;;;;;;;0.50;0.10;;;10.50;99.90;;;;;;4882992;29;20454;-69
2023/04/07 09:45:30;;;;;;;1.17;1.17;;;10.60;99.90;;;;;;4882013;29;20453;-68
2023/04/07 09:48:06;;;;;;;0.53;0.13;;;10.60;99.90;;;;;;4878423;29;20449;-67
2023/04/07 09:50:35;;;;;;;0.50;0.10;;;10.60;99.90;;;;;;4881630;29;20964;-68
2023/04/07 09:53:03;;;;;;;0.97;0.87;;;10.60;99.90;;;;;;4881219;29;20812;-68
2023/04/07 09:55:33;;;;;;;0.60;0.30;;;10.60;99.90;;;;;;4881207;29;20482;-67
2023/04/07 09:58:05;;;;;;;0.50;0.10;;;10.60;99.90;;;;;;4887244;29;20469;-67
2023/04/07 10:00:33;;;;;;;0.50;0.10;;;10.60;99.90;;;;;;4890180;29;20448;-69
2023/04/07 10:03:02;;;;;;;0.50;0.10;;;10.60;99.90;;;;;;4873868;29;20452;-68
2023/04/07 10:05:32;;;;;;;0.50;0.10;;;10.60;99.90;;;;;;4889666;29;20450;-69
2023/04/07 10:08:01;;;;;;;0.50;0.10;;;10.60;99.90;;;;;;4883783;29;20447;-69
2023/04/07 10:10:31;;;;;;;0.87;0.87;;;;;;;;;;4872096;29;20456;-72
2023/04/07 10:13:04;;;;;;;0.57;0.10;;;10.70;99.90;;;;;;4872779;29;20539;-70
2023/04/07 10:15:33;;;;;;;0.50;0.10;;;10.70;99.90;;;;;;4888942;29;20440;-69
2023/04/07 10:18:03;;;;;;;0.50;0.10;;;10.70;99.90;;;;;;4893576;29;20458;-69
2023/04/07 10:20:31;;;;;;;0.50;0.10;;;10.70;99.90;;;;;;4882443;29;20460;-70
2023/04/07 10:23:08;;;;;;;0.50;0.10;;;10.70;99.90;;;;;;4882793;29;20454;-69
2023/04/07 10:25:36;;;;;;;0.50;0.10;;;10.70;99.90;;;;;;4876252;29;20575;-68
2023/04/07 10:28:08;;;;;;;0.50;0.10;;;10.70;99.90;;;;;;4880973;29;20513;-70
2023/04/07 10:30:36;;;;;;;0.50;0.10;;;10.70;99.90;;;;;;4880901;29;20458;-71
2023/04/07 10:33:04;;;;;;;0.50;0.10;;;10.70;99.90;;;;;;4876940;29;20491;-69
2023/04/07 10:36:05;;;;;;;0.50;0.10;;;10.80;99.90;;;;;;4881139;29;20498;-71
2023/04/07 10:38:34;;;;;;;0.50;0.10;;;10.80;99.90;;;;;;4863747;29;21199;-71
2023/04/07 10:41:35;;;;;;;0.50;0.10;;;10.80;99.90;;;;;;4861532;29;20472;-70
2023/04/07 10:44:05;;;;;;;0.50;0.10;;;10.80;99.90;;;;;;4861573;29;21003;-70
2023/04/07 10:47:04;;;;;;;0.50;0.10;;;10.70;99.90;;;;;;4878090;29;20463;-70
2023/04/07 10:49:32;;;;;;;0.70;0.50;;;10.70;99.90;;;;;;4862015;29;20456;-70
2023/04/07 10:52:22;;;;;;;0.50;0.10;;;10.70;99.90;;;;;;4862601;29;20511;-70
2023/04/07 10:55:23;;;;;;;0.50;0.20;;;10.60;99.90;;;;;;4862711;29;20480;-71
2023/04/07 10:58:16;;;;;;;0.50;0.30;;;10.60;99.90;;;;;;4873026;29;20461;-70
2023/04/07 11:01:26;;;;;;;0.50;0.10;;;10.70;99.90;;;;;;4880541;29;20452;-71
2023/04/07 11:03:59;;;;;;;0.50;0.10;;;10.70;99.90;;;;;;4880797;29;20518;-70
2023/04/07 11:06:28;;;;;;;0.90;0.60;;;10.70;99.90;;;;;;4881324;29;20447;-70
2023/04/07 11:08:56;;;;;;;0.53;0.20;;;10.60;99.90;;;;;;4876739;29;20455;-71
2023/04/07 11:11:41;;;;;;;0.50;0.10;;;10.50;99.90;;;;;;4880427;29;20477;-71
2023/04/07 11:14:09;;;;;;;0.50;0.10;;;10.50;99.90;;;;;;4880497;29;20439;-72
2023/04/07 11:16:41;;;;;;;0.50;0.10;;;10.50;99.90;;;;;;4880439;29;20463;-72
2023/04/07 11:19:09;;;;;;;1.03;0.80;;;10.50;99.90;;;;;;4873166;29;20446;-72
2023/04/07 11:21:37;;;;;;;0.50;0.10;;;10.70;99.90;;;;;;4883419;29;20482;-71
2023/04/07 11:24:05;;;;;;;0.50;0.10;;;10.70;99.90;;;;;;4881326;29;20812;-73
2023/04/07 11:26:41;;;;;;;0.50;0.10;;;10.80;99.90;;;;;;4880068;29;20463;-70
2023/04/07 11:29:10;;;;;;;0.50;0.10;;;10.80;99.90;;;;;;4875588;29;20456;-70
2023/04/07 11:31:39;;;;;;;0.50;0.27;;;10.80;99.90;;;;;;4879175;29;20479;-70
2023/04/07 11:34:07;;;;;;;0.50;0.10;;;10.80;99.90;;;;;;4880790;29;20853;-72
2023/04/07 11:36:39;;;;;;;2.53;2.43;;;10.80;99.90;;;;;;4879883;29;20462;-71
2023/04/07 11:39:19;;;;;;;2.67;2.37;;;10.70;99.90;;;;;;4868356;29;20462;-70
2023/04/07 11:41:48;;;;;;;0.50;0.10;;;10.70;99.90;;;;;;4861395;29;20505;-69
2023/04/07 11:44:16;;;;;;;0.50;0.10;;;10.70;99.90;;;;;;4861040;29;20455;-70
2023/04/07 11:46:54;;;;;;;0.57;0.10;;;10.70;99.90;;;;;;4863884;29;20517;-71
2023/04/07 11:49:23;;;;;;;0.53;0.10;;;10.70;99.90;;;;;;4865640;29;20467;-70
2023/04/07 11:51:58;;;;;;;0.50;0.10;;;10.80;99.90;;;;;;4878628;29;20838;-70
2023/04/07 11:54:26;;;;;;;0.50;0.10;;;10.80;99.90;;;;;;4885180;29;20960;-72
2023/04/07 11:56:55;;;;;;;0.50;0.10;;;10.90;99.90;;;;;;4887595;29;20482;-72
2023/04/07 11:59:25;;;;;;;0.60;0.17;;;10.90;99.90;;;;;;4883820;29;20463;-72
2023/04/07 12:01:54;;;;;;;0.60;0.40;;;10.80;99.90;;;;;;4882034;29;20476;-72
2023/04/07 12:04:24;;;;;;;0.57;0.10;;;10.70;99.90;;;;;;4881070;29;20594;-72
2023/04/07 12:06:53;;;;;;;0.50;0.10;;;10.70;99.90;;;;;;4880846;29;20458;-71
2023/04/07 12:09:29;;;;;;;0.50;0.10;;;10.50;99.90;;;;;;4879926;29;20460;-72
2023/04/07 12:11:57;;;;;;;0.50;0.10;;;10.50;99.90;;;;;;4881650;29;20860;-72
2023/04/07 12:14:26;;;;;;;0.60;0.10;;;10.40;99.90;;;;;;4875141;29;20448;-71
2023/04/07 12:16:56;;;;;;;2.80;1.27;;;10.40;99.90;;;;;;4872920;29;21005;-71
2023/04/07 12:19:26;;;;;;;0.50;0.10;;;10.40;99.90;;;;;;4861453;29;20456;-71
2023/04/07 12:21:54;;;;;;;0.60;0.20;;;10.50;99.90;;;;;;4862547;29;20471;-70
2023/04/07 12:24:22;;;;;;;0.50;0.20;;;10.50;99.90;;;;;;4865775;29;20467;-70
2023/04/07 12:26:50;;;;;;;0.77;0.33;;;10.60;99.90;;;;;;4880045;29;20451;-71
2023/04/07 12:29:19;;;;;;;0.50;0.10;;;10.50;99.90;;;;;;4862103;29;20799;-72
2023/04/07 12:31:47;;;;;;;0.60;0.20;;;10.60;99.90;;;;;;4868962;29;20454;-72
2023/04/07 12:34:19;;;;;;;3.13;2.30;;;10.50;99.90;;;;;;4876861;29;20262;-73
2023/04/07 12:36:47;;;;;;;0.50;0.10;;;10.60;99.90;;;;;;4883262;29;20457;-71
2023/04/07 12:39:16;;;;;;;0.50;0.10;;;10.80;99.90;;;;;;4869374;29;20460;-72
2023/04/07 12:41:46;;;;;;;0.50;0.10;;;10.90;99.90;;;;;;4868662;29;20487;-71
2023/04/07 12:44:14;;;;;;;0.50;0.10;;;11.00;99.90;;;;;;4868380;29;20463;-70
2023/04/07 12:46:42;;;;;;;0.60;0.10;;;11.10;99.90;;;;;;4868467;29;20830;-72
2023/04/07 12:49:10;;;;;;;0.90;0.90;;;11.20;99.90;;;;;;4871726;29;20449;-70
2023/04/07 12:51:40;;;;;;;0.60;0.10;;;11.40;99.90;;;;;;4884173;29;21063;-73
2023/04/07 12:54:07;;;;;;;0.80;0.27;;;11.40;99.90;;;;;;4886929;29;20959;-71
2023/04/07 12:56:35;;;;;;;0.60;0.10;;;11.40;99.90;;;;;;4894049;29;20448;-71
2023/04/07 12:59:03;;;;;;;0.60;0.10;;;11.30;99.90;;;;;;4891839;29;20451;-72
2023/04/07 13:01:33;;;;;;;0.60;0.10;;;11.50;99.90;;;;;;4887311;29;20483;-69
2023/04/07 13:04:01;;;;;;;0.60;0.10;;;11.50;99.90;;;;;;4886799;29;20829;-72
2023/04/07 13:06:29;;;;;;;0.60;0.10;;;11.60;99.90;;;;;;4880794;29;20508;-71
2023/04/07 13:08:58;;;;;;;0.60;0.10;;;11.70;99.90;;;;;;4890569;29;20453;-71
2023/04/07 13:11:27;;;;;;;0.70;0.53;;;11.90;99.90;;;;;;4894746;29;20471;-71
2023/04/07 13:13:54;;;;;;;0.60;0.10;;;12.00;99.90;;;;;;4883357;29;20462;-70
2023/04/07 13:16:25;;;;;;;0.60;0.20;;;12.10;99.90;;;;;;4878262;29;20458;-71
2023/04/07 13:18:53;;;;;;;0.60;0.10;;;12.20;99.90;;;;;;4893160;29;20450;-71
2023/04/07 13:21:21;;;;;;;0.60;0.10;;;12.30;99.90;;;;;;4885946;29;20488;-70
2023/04/07 13:24:11;;;;;;;0.60;0.10;;;12.30;99.90;;;;;;4887276;29;20509;-71
2023/04/07 13:26:38;;;;;;;0.60;0.10;;;12.20;99.90;;;;;;4897048;29;20491;-73
2023/04/07 13:29:06;;;;;;;0.60;0.10;;;12.20;99.90;;;;;;4901842;29;20477;-72
2023/04/07 13:31:34;;;;;;;0.60;0.10;;;12.40;99.90;;;;;;4901063;29;20862;-70
2023/04/07 13:34:02;;;;;;;0.60;0.10;;;12.40;99.90;;;;;;4894684;29;20454;-72
2023/04/07 13:36:30;;;;;;;0.60;0.10;;;12.50;99.90;;;;;;4894901;29;20445;-72
2023/04/07 13:38:58;;;;;;;0.60;0.10;;;12.60;99.90;;;;;;4891303;29;20959;-69
2023/04/07 13:41:27;;;;;;;0.60;0.10;;;12.60;99.90;;;;;;4893536;29;20489;-69
2023/04/07 13:43:57;;;;;;;0.60;0.10;;;12.70;99.90;;;;;;4886452;29;20456;-71
2023/04/07 13:46:25;;;;;;;0.60;0.10;;;12.80;99.90;;;;;;4892285;29;20545;-73
2023/04/07 13:48:56;;;;;;;0.60;0.10;;;12.90;99.90;;;;;;4890805;29;20453;-69
2023/04/07 13:51:24;;;;;;;0.60;0.10;;;13.30;99.90;;;;;;4880524;29;20478;-72
2023/04/07 13:53:51;;;;;;;0.60;0.10;;;13.50;99.90;;;;;;4886581;29;20820;-71
2023/04/07 13:56:21;;;;;;;0.60;0.10;;;13.60;99.90;;;;;;4886195;29;20457;-70
2023/04/07 13:58:50;;;;;;;0.60;0.10;;;13.70;99.90;;;;;;4885282;29;20544;-70
2023/04/07 14:01:18;;;;;;;0.60;0.10;;;13.80;99.90;;;;;;4882522;29;20495;-70
2023/04/07 14:03:46;;;;;;;0.70;0.30;;;13.80;99.90;;;;;;4882670;29;20457;-69
2023/04/07 14:06:15;;;;;;;0.60;0.10;;;13.60;99.90;;;;;;4881368;29;21035;-71
2023/04/07 14:08:43;;;;;;;0.60;0.10;;;13.30;99.90;;;;;;4869886;29;20460;-70
2023/04/07 14:11:10;;;;;;;0.60;0.10;;;13.00;99.90;;;;;;4876838;29;20550;-71
2023/04/07 14:13:38;;;;;;;0.70;0.30;;;13.00;99.90;;;;;;4870471;29;20471;-71
2023/04/07 14:16:08;;;;;;;0.60;0.20;;;12.80;99.90;;;;;;4889444;29;20455;-69
2023/04/07 14:18:36;;;;;;;0.60;0.10;;;12.50;99.90;;;;;;4882279;29;20512;-72
2023/04/07 14:21:04;;;;;;;0.60;0.10;;;12.20;99.90;;;;;;4877080;29;20494;-72
2023/04/07 14:23:32;;;;;;;0.60;0.20;;;12.10;99.90;;;;;;4881923;29;20453;-72
2023/04/07 14:26:17;;;;;;;0.60;0.10;;;12.10;99.90;;;;;;4880943;29;20904;-71
2023/04/07 14:28:46;;;;;;;0.60;0.10;;;12.20;99.90;;;;;;4864525;29;20455;-70
2023/04/07 14:31:16;;;;;;;0.60;0.10;;;12.40;99.90;;;;;;4879275;29;20471;-70
2023/04/07 14:33:45;;;;;;;0.60;0.10;;;12.40;99.90;;;;;;4880539;29;20457;-72
2023/04/07 14:36:14;;;;;;;0.60;0.10;;;12.50;99.90;;;;;;4880459;29;20456;-72
2023/04/07 14:38:42;;;;;;;0.60;0.20;;;12.60;99.90;;;;;;4877073;29;20806;-71
2023/04/07 14:41:10;;;;;;;0.60;0.20;;;12.70;99.90;;;;;;4880434;29;20475;-71
2023/04/07 14:43:39;;;;;;;0.60;0.10;;;12.70;99.90;;;;;;4880240;29;20458;-70
2023/04/07 14:46:07;;;;;;;0.60;0.10;;;12.70;99.90;;;;;;4881728;29;20483;-71
2023/04/07 14:48:37;;;;;;;0.60;0.20;;;12.70;99.90;;;;;;4882067;29;20532;-70
2023/04/07 14:51:11;;;;;;;0.60;0.10;;;12.60;99.90;;;;;;4879379;29;20593;-70
2023/04/07 14:53:40;;;;;;;0.60;0.10;;;12.60;99.90;;;;;;4886599;29;20480;-69
2023/04/07 14:56:08;;;;;;;0.60;0.20;;;12.70;99.90;;;;;;4889419;29;20473;-71
2023/04/07 14:58:37;;;;;;;0.60;0.10;;;12.90;99.90;;;;;;4890269;29;20482;-70
2023/04/07 15:01:06;;;;;;;0.60;0.10;;;13.00;99.90;;;;;;4877097;29;20510;-71
2023/04/07 15:03:35;;;;;;;0.60;0.10;;;13.10;99.90;;;;;;4881396;29;20533;-72
2023/04/07 15:06:08;;;;;;;0.60;0.10;;;13.10;99.90;;;;;;4884873;29;21117;-72
2023/04/07 15:08:36;;;;;;;0.60;0.10;;;13.10;99.90;;;;;;4870972;29;20897;-72
2023/04/07 15:11:05;;;;;;;0.60;0.10;;;13.40;99.90;;;;;;4883161;29;20476;-71
2023/04/07 15:13:33;;;;;;;0.60;0.10;;;13.40;99.90;;;;;;4883951;29;20460;-70
2023/04/07 15:16:07;;;;;;;0.60;0.10;;;13.60;99.90;;;;;;4884252;29;20849;-72
2023/04/07 15:18:38;;;;;;;0.60;0.10;;;13.80;99.90;;;;;;4882426;29;20473;-70
2023/04/07 15:21:08;;;;;;;0.60;0.10;;;14.00;99.90;;;;;;4879264;29;20499;-70
2023/04/07 15:23:37;;;;;;;0.60;0.10;;;14.00;99.90;;;;;;4886393;29;20558;-71
2023/04/07 15:26:05;;;;;;;0.60;0.10;;;14.00;99.90;;;;;;4884845;29;20471;-71
2023/04/07 15:28:35;;;;;;;0.60;0.20;;;14.20;99.90;;;;;;4881025;29;20479;-72
2023/04/07 15:31:07;;;;;;;0.60;0.20;;;14.40;99.90;;;;;;4883229;29;20469;-72
2023/04/07 15:33:36;;;;;;;0.60;0.10;;;14.40;99.90;;;;;;4877226;29;20893;-69
2023/04/07 15:36:04;;;;;;;0.60;0.10;;;14.40;99.90;;;;;;4891211;29;20446;-69
2023/04/07 15:38:33;;;;;;;0.60;0.10;;;14.40;99.90;;;;;;4880721;29;20448;-72
2023/04/07 15:41:01;;;;;;;0.60;0.20;;;14.30;99.90;;;;;;4880049;29;20477;-71
2023/04/07 15:43:29;;;;;;;0.60;0.10;;;14.20;99.90;;;;;;4898714;29;20451;-71
2023/04/07 15:45:57;;;;;;;0.60;0.10;;;14.20;99.90;;;;;;4898201;29;20949;-72
2023/04/07 15:48:25;;;;;;;0.60;0.10;;;14.00;99.90;;;;;;4887786;29;20540;-70
2023/04/07 15:50:54;;;;;;;0.60;0.10;;;13.80;99.90;;;;;;4880331;29;20478;-71
2023/04/07 15:53:22;;;;;;;0.60;0.10;;;13.60;99.90;;;;;;4889392;29;20808;-70
2023/04/07 15:55:52;;;;;;;0.70;0.60;;;13.60;99.90;;;;;;4884554;29;20449;-69
2023/04/07 15:58:20;;;;;;;0.60;0.10;;;13.60;99.90;;;;;;4883135;29;20585;-70
2023/04/07 16:00:48;;;;;;;0.60;0.10;;;13.50;99.90;;;;;;4881051;29;20547;-72
2023/04/07 16:03:15;;;;;;;0.60;0.10;;;13.50;99.90;;;;;;4882020;29;20439;-71
2023/04/07 16:05:44;;;;;;;0.60;0.23;;;13.50;99.90;;;;;;4881136;29;20453;-71
2023/04/07 16:08:12;;;;;;;0.60;0.10;;;13.50;99.90;;;;;;4882833;29;20910;-71
2023/04/07 16:10:40;;;;;;;0.60;0.10;;;13.30;99.90;;;;;;4880039;29;20498;-71
2023/04/07 16:13:10;;;;;;;0.60;0.13;;;13.40;99.90;;;;;;4880347;29;20453;-71
2023/04/07 16:15:38;;;;;;;0.60;0.10;;;13.50;99.90;;;;;;4879736;29;20450;-70
2023/04/07 16:18:10;;;;;;;0.60;0.10;;;13.70;99.90;;;;;;4878704;29;20521;-71
2023/04/07 16:20:39;;;;;;;0.60;0.33;;;13.60;99.90;;;;;;4879255;29;20454;-70
2023/04/07 16:23:07;;;;;;;0.60;0.10;;;13.60;99.90;;;;;;4875843;29;20456;-70
2023/04/07 16:25:35;;;;;;;1.47;0.30;;;13.80;99.90;;;;;;4880192;29;20974;-70
2023/04/07 16:28:05;;;;;;;0.60;0.20;;;14.80;99.90;;;;;;4877376;29;20528;-71
2023/04/07 16:30:35;;;;;;;0.60;0.10;;;17.50;99.90;;;;;;4883807;29;20481;-72
2023/04/07 16:33:02;;;;;;;0.60;0.10;;;17.50;99.90;;;;;;4883009;29;20458;-68
2023/04/07 16:35:30;;;;;;;0.60;0.10;;;17.70;99.90;;;;;;4881936;29;20452;-71
2023/04/07 16:38:02;;;;;;;0.60;0.10;;;17.50;99.90;;;;;;4887610;29;20454;-70
2023/04/07 16:40:30;;;;;;;0.60;0.10;;;18.80;99.90;;;;;;4890250;29;20525;-72
2023/04/07 16:42:59;;;;;;;0.60;0.10;;;18.80;99.90;;;;;;4886774;29;20454;-71
2023/04/07 16:45:27;;;;;;;0.60;0.10;;;18.50;99.90;;;;;;4878646;29;20968;-70
2023/04/07 16:47:56;;;;;;;0.60;0.10;;;17.80;99.90;;;;;;4878579;29;20478;-71
2023/04/07 16:50:24;;;;;;;0.60;0.10;;;17.30;99.90;;;;;;4878917;29;20505;-70
2023/04/07 16:52:53;;;;;;;0.60;0.10;;;16.80;99.90;;;;;;4878472;29;20669;-71
2023/04/07 16:55:21;;;;;;;0.60;0.10;;;16.30;99.90;;;;;;4872144;29;20468;-72
2023/04/07 16:57:49;;;;;;;0.60;0.10;;;15.80;99.90;;;;;;4872822;29;20457;-69
2023/04/07 17:00:19;;;;;;;0.60;0.10;;;15.40;99.90;;;;;;4870425;29;20467;-70
2023/04/07 17:02:46;;;;;;;0.60;0.20;;;14.90;99.90;;;;;;4879236;29;20597;-71
2023/04/07 17:05:20;;;;;;;0.60;0.10;;;14.50;99.90;;;;;;4879033;29;20458;-70